sensor_id;sensor_type;location;lat;lon;timestamp;temperature;humidity
3528;DHT22;1778;47.966;7.854;2023-03-23T00:00:23;13.00;99.90
3528;DHT22;1778;47.966;7.854;2023-03-23T00:01:25;13.00;99.90
3528;DHT22;1778;47.966;7.854;2023-03-23T00:02:31;13.00;99.90
3528;DHT22;1778;47.966;7.854;2023-03-23T00:03:36;13.00;99.90
3528;DHT22;1778;47.966;7.854;2023-03-23T00:04:36;13.00;99.90
3528;DHT22;1778;47.966;7.854;2023-03-23T00:05:38;13.10;99.90
3528;DHT22;1778;47.966;7.854;2023-03-23T00:06:41;13.10;99.90
3528;DHT22;1778;47.966;7.854;2023-03-23T00:07:42;13.10;99.90
3528;DHT22;1778;47.966;7.854;2023-03-23T00:08:49;13.10;99.90
3528;DHT22;1778;47.966;7.854;2023-03-23T00:09:54;13.10;99.90
3528;DHT22;1778;47.966;7.854;2023-03-23T00:10:55;13.10;99.90
3528;DHT22;1778;47.966;7.854;2023-03-23T00:12:01;13.10;99.90
3528;DHT22;1778;47.966;7.854;2023-03-23T00:13:06;13.10;99.90
3528;DHT22;1778;47.966;7.854;2023-03-23T00:14:07;13.00;99.90
3528;DHT22;1778;47.966;7.854;2023-03-23T00:15:13;13.10;99.90
3528;DHT22;1778;47.966;7.854;2023-03-23T00:16:17;13.00;99.90
3528;DHT22;1778;47.966;7.854;2023-03-23T00:17:18;13.00;99.90
3528;DHT22;1778;47.966;7.854;2023-03-23T00:18:20;13.00;99.90
3528;DHT22;1778;47.966;7.854;2023-03-23T00:19:21;13.00;99.90
3528;DHT22;1778;47.966;7.854;2023-03-23T00:20:22;13.00;99.90
3528;DHT22;1778;47.966;7.854;2023-03-23T00:21:27;13.00;99.90
3528;DHT22;1778;47.966;7.854;2023-03-23T00:22:33;13.00;99.90
3528;DHT22;1778;47.966;7.854;2023-03-23T00:23:38;13.00;99.90
3528;DHT22;1778;47.966;7.854;2023-03-23T00:24:40;13.00;99.90
3528;DHT22;1778;47.966;7.854;2023-03-23T00:25:40;13.00;99.90
3528;DHT22;1778;47.966;7.854;2023-03-23T00:26:41;13.00;99.90
3528;DHT22;1778;47.966;7.854;2023-03-23T00:27:43;13.00;99.90
3528;DHT22;1778;47.966;7.854;2023-03-23T00:28:44;13.00;99.90
3528;DHT22;1778;47.966;7.854;2023-03-23T00:29:46;13.00;99.90
3528;DHT22;1778;47.966;7.854;2023-03-23T00:30:47;13.00;99.90
3528;DHT22;1778;47.966;7.854;2023-03-23T00:31:48;13.00;99.90
3528;DHT22;1778;47.966;7.854;2023-03-23T00:32:49;13.00;99.90
3528;DHT22;1778;47.966;7.854;2023-03-23T00:33:51;13.00;99.90
3528;DHT22;1778;47.966;7.854;2023-03-23T00:34:53;13.10;99.90
3528;DHT22;1778;47.966;7.854;2023-03-23T00:35:55;13.10;99.90
3528;DHT22;1778;47.966;7.854;2023-03-23T00:36:55;13.10;99.90
3528;DHT22;1778;47.966;7.854;2023-03-23T00:37:56;13.10;99.90
3528;DHT22;1778;47.966;7.854;2023-03-23T00:39:01;13.10;99.90
3528;DHT22;1778;47.966;7.854;2023-03-23T00:40:02;13.10;99.90
3528;DHT22;1778;47.966;7.854;2023-03-23T00:41:11;13.20;99.90
3528;DHT22;1778;47.966;7.854;2023-03-23T00:42:14;13.10;99.90
3528;DHT22;1778;47.966;7.854;2023-03-23T00:43:19;13.10;99.90
3528;DHT22;1778;47.966;7.854;2023-03-23T00:44:20;13.20;99.90
3528;DHT22;1778;47.966;7.854;2023-03-23T00:45:23;13.30;99.90
3528;DHT22;1778;47.966;7.854;2023-03-23T00:46:24;13.40;99.90
3528;DHT22;1778;47.966;7.854;2023-03-23T00:47:25;13.40;99.90
3528;DHT22;1778;47.966;7.854;2023-03-23T00:48:25;13.40;99.90
3528;DHT22;1778;47.966;7.854;2023-03-23T00:49:26;13.40;99.90
3528;DHT22;1778;47.966;7.854;2023-03-23T00:50:27;13.40;99.90
3528;DHT22;1778;47.966;7.854;2023-03-23T00:51:28;13.40;99.90
3528;DHT22;1778;47.966;7.854;2023-03-23T00:52:28;13.30;99.90
3528;DHT22;1778;47.966;7.854;2023-03-23T00:53:29;13.30;99.90
3528;DHT22;1778;47.966;7.854;2023-03-23T00:54:30;13.40;99.90
3528;DHT22;1778;47.966;7.854;2023-03-23T00:55:31;13.50;99.90
3528;DHT22;1778;47.966;7.854;2023-03-23T00:56:34;13.60;99.90
3528;DHT22;1778;47.966;7.854;2023-03-23T00:57:35;13.60;99.90
3528;DHT22;1778;47.966;7.854;2023-03-23T00:58:35;13.60;99.90
3528;DHT22;1778;47.966;7.854;2023-03-23T00:59:36;13.70;99.90
3528;DHT22;1778;47.966;7.854;2023-03-23T01:00:37;13.60;99.90
3528;DHT22;1778;47.966;7.854;2023-03-23T01:01:38;13.70;99.90
3528;DHT22;1778;47.966;7.854;2023-03-23T01:02:38;13.80;99.90
3528;DHT22;1778;47.966;7.854;2023-03-23T01:03:40;13.80;99.90
3528;DHT22;1778;47.966;7.854;2023-03-23T01:04:41;13.80;99.90
3528;DHT22;1778;47.966;7.854;2023-03-23T01:05:45;13.90;99.90
3528;DHT22;1778;47.966;7.854;2023-03-23T01:06:51;14.00;99.90
3528;DHT22;1778;47.966;7.854;2023-03-23T01:07:52;14.00;99.90
3528;DHT22;1778;47.966;7.854;2023-03-23T01:08:53;14.00;99.90
3528;DHT22;1778;47.966;7.854;2023-03-23T01:09:54;14.00;99.90
3528;DHT22;1778;47.966;7.854;2023-03-23T01:11:05;14.00;99.90
3528;DHT22;1778;47.966;7.854;2023-03-23T01:12:07;14.10;99.90
3528;DHT22;1778;47.966;7.854;2023-03-23T01:13:08;14.20;99.90
3528;DHT22;1778;47.966;7.854;2023-03-23T01:14:09;14.10;99.90
3528;DHT22;1778;47.966;7.854;2023-03-23T01:15:14;14.10;99.90
3528;DHT22;1778;47.966;7.854;2023-03-23T01:16:14;14.20;99.90
3528;DHT22;1778;47.966;7.854;2023-03-23T01:17:15;14.30;99.90
3528;DHT22;1778;47.966;7.854;2023-03-23T01:18:16;14.40;99.90
3528;DHT22;1778;47.966;7.854;2023-03-23T01:19:17;14.40;99.90
3528;DHT22;1778;47.966;7.854;2023-03-23T01:20:18;14.40;99.90
3528;DHT22;1778;47.966;7.854;2023-03-23T01:21:19;14.40;99.90
3528;DHT22;1778;47.966;7.854;2023-03-23T01:22:20;14.40;99.90
3528;DHT22;1778;47.966;7.854;2023-03-23T01:23:21;14.40;99.90
3528;DHT22;1778;47.966;7.854;2023-03-23T01:24:21;14.50;99.90
3528;DHT22;1778;47.966;7.854;2023-03-23T01:25:21;14.50;99.90
3528;DHT22;1778;47.966;7.854;2023-03-23T01:26:24;14.50;99.90
3528;DHT22;1778;47.966;7.854;2023-03-23T01:27:25;14.50;99.90
3528;DHT22;1778;47.966;7.854;2023-03-23T01:28:25;14.50;99.90
3528;DHT22;1778;47.966;7.854;2023-03-23T01:29:26;14.60;99.90
3528;DHT22;1778;47.966;7.854;2023-03-23T01:30:27;14.60;99.90
3528;DHT22;1778;47.966;7.854;2023-03-23T01:31:27;14.70;99.90
3528;DHT22;1778;47.966;7.854;2023-03-23T01:32:28;14.70;99.90
3528;DHT22;1778;47.966;7.854;2023-03-23T01:33:29;14.80;99.90
3528;DHT22;1778;47.966;7.854;2023-03-23T01:34:30;14.90;99.90
3528;DHT22;1778;47.966;7.854;2023-03-23T01:35:31;14.90;99.90
3528;DHT22;1778;47.966;7.854;2023-03-23T01:36:32;14.90;99.90
3528;DHT22;1778;47.966;7.854;2023-03-23T01:37:36;14.90;99.90
3528;DHT22;1778;47.966;7.854;2023-03-23T01:38:38;15.00;99.90
3528;DHT22;1778;47.966;7.854;2023-03-23T01:39:38;15.00;99.90
3528;DHT22;1778;47.966;7.854;2023-03-23T01:40:39;15.10;99.90
3528;DHT22;1778;47.966;7.854;2023-03-23T01:41:39;15.10;99.90
3528;DHT22;1778;47.966;7.854;2023-03-23T01:42:44;15.10;99.90
3528;DHT22;1778;47.966;7.854;2023-03-23T01:44:06;15.10;99.90
3528;DHT22;1778;47.966;7.854;2023-03-23T01:46:20;15.20;99.90
3528;DHT22;1778;47.966;7.854;2023-03-23T01:47:22;15.20;99.90
3528;DHT22;1778;47.966;7.854;2023-03-23T01:48:32;15.20;99.90
3528;DHT22;1778;47.966;7.854;2023-03-23T01:49:38;15.20;99.90
3528;DHT22;1778;47.966;7.854;2023-03-23T01:51:57;15.10;99.90
3528;DHT22;1778;47.966;7.854;2023-03-23T01:52:59;15.10;99.90
3528;DHT22;1778;47.966;7.854;2023-03-23T01:54:03;15.10;99.90
3528;DHT22;1778;47.966;7.854;2023-03-23T01:55:04;15.10;99.90
3528;DHT22;1778;47.966;7.854;2023-03-23T01:56:08;15.10;99.90
3528;DHT22;1778;47.966;7.854;2023-03-23T01:57:17;15.10;99.90
3528;DHT22;1778;47.966;7.854;2023-03-23T01:58:23;15.10;99.90
3528;DHT22;1778;47.966;7.854;2023-03-23T01:59:27;15.10;99.90
3528;DHT22;1778;47.966;7.854;2023-03-23T02:00:49;15.10;99.90
3528;DHT22;1778;47.966;7.854;2023-03-23T02:01:50;15.20;99.90
3528;DHT22;1778;47.966;7.854;2023-03-23T02:02:53;15.20;99.90
3528;DHT22;1778;47.966;7.854;2023-03-23T02:03:56;15.20;99.90
3528;DHT22;1778;47.966;7.854;2023-03-23T02:05:02;15.30;99.90
3528;DHT22;1778;47.966;7.854;2023-03-23T02:06:06;15.30;99.90
3528;DHT22;1778;47.966;7.854;2023-03-23T02:07:14;15.30;99.90
3528;DHT22;1778;47.966;7.854;2023-03-23T02:08:16;15.40;99.90
3528;DHT22;1778;47.966;7.854;2023-03-23T02:09:19;15.30;99.90
3528;DHT22;1778;47.966;7.854;2023-03-23T02:10:23;15.30;99.90
3528;DHT22;1778;47.966;7.854;2023-03-23T02:11:24;15.30;99.90
3528;DHT22;1778;47.966;7.854;2023-03-23T02:12:24;15.30;99.90
3528;DHT22;1778;47.966;7.854;2023-03-23T02:13:27;15.30;99.90
3528;DHT22;1778;47.966;7.854;2023-03-23T02:14:28;15.30;99.90
3528;DHT22;1778;47.966;7.854;2023-03-23T02:22:28;15.40;99.90
3528;DHT22;1778;47.966;7.854;2023-03-23T02:23:38;15.50;99.90
3528;DHT22;1778;47.966;7.854;2023-03-23T02:35:03;15.30;99.90
3528;DHT22;1778;47.966;7.854;2023-03-23T02:36:36;15.30;99.90
3528;DHT22;1778;47.966;7.854;2023-03-23T02:39:56;15.20;99.90
3528;DHT22;1778;47.966;7.854;2023-03-23T02:41:01;15.30;99.90
3528;DHT22;1778;47.966;7.854;2023-03-23T02:42:05;15.40;99.90
3528;DHT22;1778;47.966;7.854;2023-03-23T02:43:10;15.40;99.90
3528;DHT22;1778;47.966;7.854;2023-03-23T02:44:12;15.50;99.90
3528;DHT22;1778;47.966;7.854;2023-03-23T02:45:14;15.50;99.90
3528;DHT22;1778;47.966;7.854;2023-03-23T02:46:16;15.40;99.90
3528;DHT22;1778;47.966;7.854;2023-03-23T02:47:23;15.40;99.90
3528;DHT22;1778;47.966;7.854;2023-03-23T02:48:28;15.40;99.90
3528;DHT22;1778;47.966;7.854;2023-03-23T02:49:32;15.40;99.90
3528;DHT22;1778;47.966;7.854;2023-03-23T02:50:36;15.40;99.90
3528;DHT22;1778;47.966;7.854;2023-03-23T02:51:38;15.40;99.90
3528;DHT22;1778;47.966;7.854;2023-03-23T02:52:40;15.30;99.90
3528;DHT22;1778;47.966;7.854;2023-03-23T02:53:42;15.30;99.90
3528;DHT22;1778;47.966;7.854;2023-03-23T02:54:46;15.30;99.90
3528;DHT22;1778;47.966;7.854;2023-03-23T02:55:50;15.30;99.90
3528;DHT22;1778;47.966;7.854;2023-03-23T02:56:55;15.30;99.90
3528;DHT22;1778;47.966;7.854;2023-03-23T02:58:01;15.30;99.90
3528;DHT22;1778;47.966;7.854;2023-03-23T02:59:03;15.40;99.90
3528;DHT22;1778;47.966;7.854;2023-03-23T03:00:06;15.40;99.90
3528;DHT22;1778;47.966;7.854;2023-03-23T03:02:00;15.40;99.90
3528;DHT22;1778;47.966;7.854;2023-03-23T03:02:41;15.40;99.90
3528;DHT22;1778;47.966;7.854;2023-03-23T03:03:43;15.40;99.90
3528;DHT22;1778;47.966;7.854;2023-03-23T03:06:33;15.40;99.90
3528;DHT22;1778;47.966;7.854;2023-03-23T03:10:49;15.30;99.90
3528;DHT22;1778;47.966;7.854;2023-03-23T03:11:56;15.20;99.90
3528;DHT22;1778;47.966;7.854;2023-03-23T03:14:33;15.20;99.90
3528;DHT22;1778;47.966;7.854;2023-03-23T03:17:00;15.10;99.90
3528;DHT22;1778;47.966;7.854;2023-03-23T03:18:16;15.10;99.90
3528;DHT22;1778;47.966;7.854;2023-03-23T03:19:23;15.00;99.90
3528;DHT22;1778;47.966;7.854;2023-03-23T03:20:27;15.00;99.90
3528;DHT22;1778;47.966;7.854;2023-03-23T03:21:33;15.00;99.90
3528;DHT22;1778;47.966;7.854;2023-03-23T03:22:35;15.00;99.90
3528;DHT22;1778;47.966;7.854;2023-03-23T03:23:38;14.90;99.90
3528;DHT22;1778;47.966;7.854;2023-03-23T03:24:42;14.90;99.90
3528;DHT22;1778;47.966;7.854;2023-03-23T03:25:46;14.90;99.90
3528;DHT22;1778;47.966;7.854;2023-03-23T03:26:54;14.90;99.90
3528;DHT22;1778;47.966;7.854;2023-03-23T03:28:08;14.90;99.90
3528;DHT22;1778;47.966;7.854;2023-03-23T03:29:20;14.90;99.90
3528;DHT22;1778;47.966;7.854;2023-03-23T03:30:26;14.90;99.90
3528;DHT22;1778;47.966;7.854;2023-03-23T03:31:35;15.00;99.90
3528;DHT22;1778;47.966;7.854;2023-03-23T03:32:44;15.00;99.90
3528;DHT22;1778;47.966;7.854;2023-03-23T03:33:47;15.10;99.90
3528;DHT22;1778;47.966;7.854;2023-03-23T03:34:49;15.20;99.90
3528;DHT22;1778;47.966;7.854;2023-03-23T03:35:56;15.30;99.90
3528;DHT22;1778;47.966;7.854;2023-03-23T03:36:57;15.30;99.90
3528;DHT22;1778;47.966;7.854;2023-03-23T03:38:06;15.30;99.90
3528;DHT22;1778;47.966;7.854;2023-03-23T03:39:08;15.40;99.90
3528;DHT22;1778;47.966;7.854;2023-03-23T03:40:17;15.40;99.90
3528;DHT22;1778;47.966;7.854;2023-03-23T03:41:19;15.40;99.90
3528;DHT22;1778;47.966;7.854;2023-03-23T03:42:20;15.50;99.90
3528;DHT22;1778;47.966;7.854;2023-03-23T03:43:21;15.60;99.90
3528;DHT22;1778;47.966;7.854;2023-03-23T03:44:21;15.60;99.90
3528;DHT22;1778;47.966;7.854;2023-03-23T03:45:22;15.60;99.90
3528;DHT22;1778;47.966;7.854;2023-03-23T03:46:23;15.60;99.90
3528;DHT22;1778;47.966;7.854;2023-03-23T03:47:27;15.60;99.90
3528;DHT22;1778;47.966;7.854;2023-03-23T03:48:27;15.50;99.90
3528;DHT22;1778;47.966;7.854;2023-03-23T03:49:27;15.50;99.90
3528;DHT22;1778;47.966;7.854;2023-03-23T03:50:28;15.60;99.90
3528;DHT22;1778;47.966;7.854;2023-03-23T03:51:30;15.50;99.90
3528;DHT22;1778;47.966;7.854;2023-03-23T03:52:30;15.50;99.90
3528;DHT22;1778;47.966;7.854;2023-03-23T03:53:32;15.50;99.90
3528;DHT22;1778;47.966;7.854;2023-03-23T03:54:32;15.40;99.90
3528;DHT22;1778;47.966;7.854;2023-03-23T03:55:33;15.40;99.90
3528;DHT22;1778;47.966;7.854;2023-03-23T03:56:42;15.40;99.90
3528;DHT22;1778;47.966;7.854;2023-03-23T03:58:02;15.40;99.90
3528;DHT22;1778;47.966;7.854;2023-03-23T03:59:27;15.40;99.90
3528;DHT22;1778;47.966;7.854;2023-03-23T04:00:51;15.40;99.90
3528;DHT22;1778;47.966;7.854;2023-03-23T04:01:56;15.50;99.90
3528;DHT22;1778;47.966;7.854;2023-03-23T04:02:57;15.50;99.90
3528;DHT22;1778;47.966;7.854;2023-03-23T04:04:20;15.60;99.90
3528;DHT22;1778;47.966;7.854;2023-03-23T04:05:22;15.60;99.90
3528;DHT22;1778;47.966;7.854;2023-03-23T04:06:23;15.60;99.90
3528;DHT22;1778;47.966;7.854;2023-03-23T04:07:28;15.60;99.90
3528;DHT22;1778;47.966;7.854;2023-03-23T04:08:29;15.70;99.90
3528;DHT22;1778;47.966;7.854;2023-03-23T04:09:30;15.60;99.90
3528;DHT22;1778;47.966;7.854;2023-03-23T04:10:32;15.70;99.90
3528;DHT22;1778;47.966;7.854;2023-03-23T04:11:34;15.80;99.90
3528;DHT22;1778;47.966;7.854;2023-03-23T04:12:55;15.80;99.90
3528;DHT22;1778;47.966;7.854;2023-03-23T04:14:22;15.80;99.90
3528;DHT22;1778;47.966;7.854;2023-03-23T04:15:23;15.80;99.90
3528;DHT22;1778;47.966;7.854;2023-03-23T04:16:24;15.80;99.90
3528;DHT22;1778;47.966;7.854;2023-03-23T04:17:27;15.80;99.90
3528;DHT22;1778;47.966;7.854;2023-03-23T04:18:28;15.80;99.90
3528;DHT22;1778;47.966;7.854;2023-03-23T04:19:30;15.90;99.90
3528;DHT22;1778;47.966;7.854;2023-03-23T04:20:34;15.80;99.90
3528;DHT22;1778;47.966;7.854;2023-03-23T04:21:35;15.90;99.90
3528;DHT22;1778;47.966;7.854;2023-03-23T04:22:36;15.80;99.90
3528;DHT22;1778;47.966;7.854;2023-03-23T04:23:37;15.80;99.90
3528;DHT22;1778;47.966;7.854;2023-03-23T04:24:40;15.70;99.90
3528;DHT22;1778;47.966;7.854;2023-03-23T04:25:49;15.60;99.90
3528;DHT22;1778;47.966;7.854;2023-03-23T04:26:50;15.70;99.90
3528;DHT22;1778;47.966;7.854;2023-03-23T04:27:59;15.60;99.90
3528;DHT22;1778;47.966;7.854;2023-03-23T04:29:06;15.60;99.90
3528;DHT22;1778;47.966;7.854;2023-03-23T04:30:32;15.60;99.90
3528;DHT22;1778;47.966;7.854;2023-03-23T04:31:40;15.60;99.90
3528;DHT22;1778;47.966;7.854;2023-03-23T04:32:51;15.50;99.90
3528;DHT22;1778;47.966;7.854;2023-03-23T04:33:56;15.50;99.90
3528;DHT22;1778;47.966;7.854;2023-03-23T04:35:00;15.40;99.90
3528;DHT22;1778;47.966;7.854;2023-03-23T04:36:09;15.40;99.90
3528;DHT22;1778;47.966;7.854;2023-03-23T04:37:17;15.40;99.90
3528;DHT22;1778;47.966;7.854;2023-03-23T04:38:20;15.30;99.90
3528;DHT22;1778;47.966;7.854;2023-03-23T04:39:25;15.30;99.90
3528;DHT22;1778;47.966;7.854;2023-03-23T04:40:30;15.20;99.90
3528;DHT22;1778;47.966;7.854;2023-03-23T04:41:40;15.20;99.90
3528;DHT22;1778;47.966;7.854;2023-03-23T04:42:51;15.20;99.90
3528;DHT22;1778;47.966;7.854;2023-03-23T04:44:18;15.20;99.90
3528;DHT22;1778;47.966;7.854;2023-03-23T04:45:34;15.20;99.90
3528;DHT22;1778;47.966;7.854;2023-03-23T04:46:37;15.30;99.90
3528;DHT22;1778;47.966;7.854;2023-03-23T04:47:42;15.40;99.90
3528;DHT22;1778;47.966;7.854;2023-03-23T04:48:58;15.30;99.90
3528;DHT22;1778;47.966;7.854;2023-03-23T04:50:03;15.30;99.90
3528;DHT22;1778;47.966;7.854;2023-03-23T04:51:11;15.30;99.90
3528;DHT22;1778;47.966;7.854;2023-03-23T04:52:18;15.30;99.90
3528;DHT22;1778;47.966;7.854;2023-03-23T04:53:28;15.20;99.90
3528;DHT22;1778;47.966;7.854;2023-03-23T04:54:28;15.20;99.90
3528;DHT22;1778;47.966;7.854;2023-03-23T04:55:34;15.20;99.90
3528;DHT22;1778;47.966;7.854;2023-03-23T04:56:36;15.20;99.90
3528;DHT22;1778;47.966;7.854;2023-03-23T04:57:43;15.20;99.90
3528;DHT22;1778;47.966;7.854;2023-03-23T04:59:02;15.20;99.90
3528;DHT22;1778;47.966;7.854;2023-03-23T05:00:10;15.10;99.90
3528;DHT22;1778;47.966;7.854;2023-03-23T05:01:23;15.00;99.90
3528;DHT22;1778;47.966;7.854;2023-03-23T05:02:49;15.10;99.90
3528;DHT22;1778;47.966;7.854;2023-03-23T05:03:55;15.00;99.90
3528;DHT22;1778;47.966;7.854;2023-03-23T05:04:56;15.00;99.90
3528;DHT22;1778;47.966;7.854;2023-03-23T05:06:02;15.00;99.90
3528;DHT22;1778;47.966;7.854;2023-03-23T05:07:03;15.00;99.90
3528;DHT22;1778;47.966;7.854;2023-03-23T05:08:06;15.00;99.90
3528;DHT22;1778;47.966;7.854;2023-03-23T05:09:11;15.10;99.90
3528;DHT22;1778;47.966;7.854;2023-03-23T05:10:13;15.10;99.90
3528;DHT22;1778;47.966;7.854;2023-03-23T05:11:14;15.10;99.90
3528;DHT22;1778;47.966;7.854;2023-03-23T05:12:16;15.10;99.90
3528;DHT22;1778;47.966;7.854;2023-03-23T05:13:29;15.10;99.90
3528;DHT22;1778;47.966;7.854;2023-03-23T05:14:32;15.10;99.90
3528;DHT22;1778;47.966;7.854;2023-03-23T05:15:39;15.10;99.90
3528;DHT22;1778;47.966;7.854;2023-03-23T05:16:42;15.10;99.90
3528;DHT22;1778;47.966;7.854;2023-03-23T05:17:43;15.10;99.90
3528;DHT22;1778;47.966;7.854;2023-03-23T05:18:49;15.00;99.90
3528;DHT22;1778;47.966;7.854;2023-03-23T05:19:52;15.00;99.90
3528;DHT22;1778;47.966;7.854;2023-03-23T05:21:08;15.00;99.90
3528;DHT22;1778;47.966;7.854;2023-03-23T05:22:15;15.00;99.90
3528;DHT22;1778;47.966;7.854;2023-03-23T05:23:21;15.00;99.90
3528;DHT22;1778;47.966;7.854;2023-03-23T05:24:30;15.00;99.90
3528;DHT22;1778;47.966;7.854;2023-03-23T05:25:36;15.00;99.90
3528;DHT22;1778;47.966;7.854;2023-03-23T05:26:51;15.00;99.90
3528;DHT22;1778;47.966;7.854;2023-03-23T05:27:58;15.00;99.90
3528;DHT22;1778;47.966;7.854;2023-03-23T05:29:16;15.00;99.90
3528;DHT22;1778;47.966;7.854;2023-03-23T05:30:26;15.00;99.90
3528;DHT22;1778;47.966;7.854;2023-03-23T05:31:29;14.90;99.90
3528;DHT22;1778;47.966;7.854;2023-03-23T05:32:30;14.90;99.90
3528;DHT22;1778;47.966;7.854;2023-03-23T05:33:39;14.80;99.90
3528;DHT22;1778;47.966;7.854;2023-03-23T05:34:45;14.80;99.90
3528;DHT22;1778;47.966;7.854;2023-03-23T05:35:47;14.80;99.90
3528;DHT22;1778;47.966;7.854;2023-03-23T05:36:51;14.80;99.90
3528;DHT22;1778;47.966;7.854;2023-03-23T05:38:28;14.90;99.90
3528;DHT22;1778;47.966;7.854;2023-03-23T05:39:30;14.90;99.90
3528;DHT22;1778;47.966;7.854;2023-03-23T05:40:49;14.90;99.90
3528;DHT22;1778;47.966;7.854;2023-03-23T05:41:59;14.90;99.90
3528;DHT22;1778;47.966;7.854;2023-03-23T05:43:10;14.80;99.90
3528;DHT22;1778;47.966;7.854;2023-03-23T05:44:30;14.80;99.90
3528;DHT22;1778;47.966;7.854;2023-03-23T05:45:33;14.80;99.90
3528;DHT22;1778;47.966;7.854;2023-03-23T05:46:34;14.80;99.90
3528;DHT22;1778;47.966;7.854;2023-03-23T05:47:36;14.80;99.90
3528;DHT22;1778;47.966;7.854;2023-03-23T05:48:42;14.80;99.90
3528;DHT22;1778;47.966;7.854;2023-03-23T05:49:47;14.90;99.90
3528;DHT22;1778;47.966;7.854;2023-03-23T05:50:51;14.90;99.90
3528;DHT22;1778;47.966;7.854;2023-03-23T05:51:54;15.00;99.90
3528;DHT22;1778;47.966;7.854;2023-03-23T05:52:55;14.90;99.90
3528;DHT22;1778;47.966;7.854;2023-03-23T05:53:57;14.90;99.90
3528;DHT22;1778;47.966;7.854;2023-03-23T05:54:58;15.00;99.90
3528;DHT22;1778;47.966;7.854;2023-03-23T05:56:02;15.00;99.90
3528;DHT22;1778;47.966;7.854;2023-03-23T05:57:26;15.10;99.90
3528;DHT22;1778;47.966;7.854;2023-03-23T05:58:40;15.10;99.90
3528;DHT22;1778;47.966;7.854;2023-03-23T05:59:40;15.20;99.90
3528;DHT22;1778;47.966;7.854;2023-03-23T06:00:46;15.20;99.90
3528;DHT22;1778;47.966;7.854;2023-03-23T06:01:54;15.30;99.90
3528;DHT22;1778;47.966;7.854;2023-03-23T06:02:56;15.20;99.90
3528;DHT22;1778;47.966;7.854;2023-03-23T06:04:18;15.30;99.90
3528;DHT22;1778;47.966;7.854;2023-03-23T06:05:29;15.40;99.90
3528;DHT22;1778;47.966;7.854;2023-03-23T06:06:31;15.40;99.90
3528;DHT22;1778;47.966;7.854;2023-03-23T06:07:42;15.40;99.90
3528;DHT22;1778;47.966;7.854;2023-03-23T06:08:43;15.40;99.90
3528;DHT22;1778;47.966;7.854;2023-03-23T06:09:45;15.30;99.90
3528;DHT22;1778;47.966;7.854;2023-03-23T06:11:01;15.40;99.90
3528;DHT22;1778;47.966;7.854;2023-03-23T06:12:04;15.40;99.90
3528;DHT22;1778;47.966;7.854;2023-03-23T06:13:40;15.50;99.90
3528;DHT22;1778;47.966;7.854;2023-03-23T06:14:43;15.50;99.90
3528;DHT22;1778;47.966;7.854;2023-03-23T06:15:45;15.40;99.90
3528;DHT22;1778;47.966;7.854;2023-03-23T06:17:06;15.40;99.90
3528;DHT22;1778;47.966;7.854;2023-03-23T06:18:08;15.40;99.90
3528;DHT22;1778;47.966;7.854;2023-03-23T06:19:18;15.40;99.90
3528;DHT22;1778;47.966;7.854;2023-03-23T06:20:27;15.30;99.90
3528;DHT22;1778;47.966;7.854;2023-03-23T06:21:28;15.30;99.90
3528;DHT22;1778;47.966;7.854;2023-03-23T06:22:43;15.30;99.90
3528;DHT22;1778;47.966;7.854;2023-03-23T06:23:48;15.20;99.90
3528;DHT22;1778;47.966;7.854;2023-03-23T06:24:50;15.20;99.90
3528;DHT22;1778;47.966;7.854;2023-03-23T06:25:59;15.20;99.90
3528;DHT22;1778;47.966;7.854;2023-03-23T06:27:00;15.30;99.90
3528;DHT22;1778;47.966;7.854;2023-03-23T06:28:01;15.20;99.90
3528;DHT22;1778;47.966;7.854;2023-03-23T06:29:04;15.30;99.90
3528;DHT22;1778;47.966;7.854;2023-03-23T06:30:14;15.30;99.90
3528;DHT22;1778;47.966;7.854;2023-03-23T06:31:16;15.30;99.90
3528;DHT22;1778;47.966;7.854;2023-03-23T06:32:18;15.30;99.90
3528;DHT22;1778;47.966;7.854;2023-03-23T06:33:19;15.40;99.90
3528;DHT22;1778;47.966;7.854;2023-03-23T06:34:46;15.30;99.90
3528;DHT22;1778;47.966;7.854;2023-03-23T06:36:08;15.40;99.90
3528;DHT22;1778;47.966;7.854;2023-03-23T06:37:36;15.30;99.90
3528;DHT22;1778;47.966;7.854;2023-03-23T06:39:03;15.40;99.90
3528;DHT22;1778;47.966;7.854;2023-03-23T06:40:20;15.30;99.90
3528;DHT22;1778;47.966;7.854;2023-03-23T06:41:27;15.30;99.90
3528;DHT22;1778;47.966;7.854;2023-03-23T06:42:27;15.30;99.90
3528;DHT22;1778;47.966;7.854;2023-03-23T06:43:48;15.30;99.90
3528;DHT22;1778;47.966;7.854;2023-03-23T06:44:52;15.30;99.90
3528;DHT22;1778;47.966;7.854;2023-03-23T06:45:59;15.40;99.90
3528;DHT22;1778;47.966;7.854;2023-03-23T06:47:15;15.40;99.90
3528;DHT22;1778;47.966;7.854;2023-03-23T06:48:20;15.50;99.90
3528;DHT22;1778;47.966;7.854;2023-03-23T06:49:22;15.60;99.90
3528;DHT22;1778;47.966;7.854;2023-03-23T06:50:52;15.60;99.90
3528;DHT22;1778;47.966;7.854;2023-03-23T06:51:55;15.70;99.90
3528;DHT22;1778;47.966;7.854;2023-03-23T06:53:00;15.70;99.90
3528;DHT22;1778;47.966;7.854;2023-03-23T06:54:01;15.70;99.90
3528;DHT22;1778;47.966;7.854;2023-03-23T06:55:05;15.70;99.90
3528;DHT22;1778;47.966;7.854;2023-03-23T06:56:06;15.70;99.90
3528;DHT22;1778;47.966;7.854;2023-03-23T06:57:08;15.70;99.90
3528;DHT22;1778;47.966;7.854;2023-03-23T06:58:09;15.70;99.90
3528;DHT22;1778;47.966;7.854;2023-03-23T06:59:09;15.80;99.90
3528;DHT22;1778;47.966;7.854;2023-03-23T07:00:12;15.80;99.90
3528;DHT22;1778;47.966;7.854;2023-03-23T07:01:14;15.80;99.90
3528;DHT22;1778;47.966;7.854;2023-03-23T07:02:23;15.90;99.90
3528;DHT22;1778;47.966;7.854;2023-03-23T07:03:25;15.80;99.90
3528;DHT22;1778;47.966;7.854;2023-03-23T07:04:28;15.80;99.90
3528;DHT22;1778;47.966;7.854;2023-03-23T07:05:38;15.80;99.90
3528;DHT22;1778;47.966;7.854;2023-03-23T07:06:39;15.80;99.90
3528;DHT22;1778;47.966;7.854;2023-03-23T07:07:42;15.80;99.90
3528;DHT22;1778;47.966;7.854;2023-03-23T07:09:00;15.70;99.90
3528;DHT22;1778;47.966;7.854;2023-03-23T07:10:04;15.80;99.90
3528;DHT22;1778;47.966;7.854;2023-03-23T07:11:05;15.70;99.90
3528;DHT22;1778;47.966;7.854;2023-03-23T07:12:07;15.70;99.90
3528;DHT22;1778;47.966;7.854;2023-03-23T07:13:13;15.70;99.90
3528;DHT22;1778;47.966;7.854;2023-03-23T07:14:22;15.70;99.90
3528;DHT22;1778;47.966;7.854;2023-03-23T07:15:25;15.80;99.90
3528;DHT22;1778;47.966;7.854;2023-03-23T07:16:28;15.80;99.90
3528;DHT22;1778;47.966;7.854;2023-03-23T07:17:29;15.80;99.90
3528;DHT22;1778;47.966;7.854;2023-03-23T07:18:52;15.80;99.90
3528;DHT22;1778;47.966;7.854;2023-03-23T07:19:54;15.70;99.90
3528;DHT22;1778;47.966;7.854;2023-03-23T07:20:55;15.70;99.90
3528;DHT22;1778;47.966;7.854;2023-03-23T07:22:01;15.70;99.90
3528;DHT22;1778;47.966;7.854;2023-03-23T07:23:01;15.70;99.90
3528;DHT22;1778;47.966;7.854;2023-03-23T07:24:13;15.70;99.90
3528;DHT22;1778;47.966;7.854;2023-03-23T07:25:36;15.70;99.90
3528;DHT22;1778;47.966;7.854;2023-03-23T07:26:37;15.70;99.90
3528;DHT22;1778;47.966;7.854;2023-03-23T07:27:38;15.80;99.90
3528;DHT22;1778;47.966;7.854;2023-03-23T07:28:40;15.80;99.90
3528;DHT22;1778;47.966;7.854;2023-03-23T07:30:16;15.90;99.90
3528;DHT22;1778;47.966;7.854;2023-03-23T07:31:16;15.90;99.90
3528;DHT22;1778;47.966;7.854;2023-03-23T07:32:17;15.90;99.90
3528;DHT22;1778;47.966;7.854;2023-03-23T07:33:19;15.80;99.90
3528;DHT22;1778;47.966;7.854;2023-03-23T07:34:20;15.90;99.90
3528;DHT22;1778;47.966;7.854;2023-03-23T07:35:33;15.90;99.90
3528;DHT22;1778;47.966;7.854;2023-03-23T07:36:46;15.90;99.90
3528;DHT22;1778;47.966;7.854;2023-03-23T07:37:47;15.80;99.90